Time;durP1;ratioP1;P1;durP2;ratioP2;P2;SDS_P1;SDS_P2;PMS_P1;PMS_P2;Temp;Humidity;BMP_temperature;BMP_pressure;BME280_temperature;BME280_humidity;BME280_pressure;Samples;Min_cycle;Max_cycle;Signal;HPM_P1;HPM_P2
2023/07/25 00:04:03;;;;;;;5.55;2.17;;;;;;;17.02;100.00;96877.25;18432787;32;20072;-57
2023/07/25 00:14:05;;;;;;;2.72;2.08;;;;;;;17.02;100.00;96886.25;18432743;32;20071;-58
2023/07/25 00:24:08;;;;;;;5.12;2.00;;;;;;;17.05;100.00;96882.84;18431791;32;20117;-58
2023/07/25 00:34:11;;;;;;;4.30;1.87;;;;;;;17.08;100.00;96862.28;18431319;32;20094;-58
2023/07/25 00:44:13;;;;;;;4.23;1.90;;;;;;;17.06;100.00;96854.41;18403852;32;20380;-58
2023/07/25 00:54:16;;;;;;;3.83;2.25;;;;;;;17.03;100.00;96837.87;18430946;32;20041;-57
2023/07/25 01:04:19;;;;;;;3.30;1.90;;;;;;;16.98;100.00;96841.62;18430508;32;20068;-58
2023/07/25 01:14:22;;;;;;;3.47;1.95;;;;;;;16.96;100.00;96849.34;18430267;32;20098;-58
2023/07/25 01:24:25;;;;;;;2.72;1.90;;;;;;;16.94;100.00;96841.47;18429866;32;20091;-58
2023/07/25 01:34:27;;;;;;;2.17;1.42;;;;;;;16.93;100.00;96828.97;18429628;32;20053;-58
2023/07/25 01:44:30;;;;;;;3.70;1.85;;;;;;;16.88;100.00;96826.41;18428935;32;20493;-58
2023/07/25 01:54:32;;;;;;;4.15;1.58;;;;;;;16.80;100.00;96813.63;18440109;32;20069;-57
2023/07/25 02:04:34;;;;;;;3.17;1.65;;;;;;;16.65;100.00;96792.34;18440020;32;20105;-58
2023/07/25 02:14:37;;;;;;;1.92;1.37;;;;;;;16.54;100.00;96784.56;18439353;32;20090;-57
2023/07/25 02:24:39;;;;;;;3.87;1.80;;;;;;;16.39;100.00;96766.00;18425013;32;20075;-58
2023/07/25 02:34:42;;;;;;;5.62;1.90;;;;;;;16.26;100.00;96755.00;18433938;32;20108;-57
2023/07/25 02:44:44;;;;;;;3.30;1.60;;;;;;;16.05;100.00;96746.00;18421289;32;20046;-58
2023/07/25 02:54:46;;;;;;;2.75;1.75;;;;;;;15.98;100.00;96753.87;18437142;32;20368;-58
2023/07/25 03:04:49;;;;;;;2.45;0.98;;;;;;;15.88;100.00;96750.41;18436301;32;20405;-58
2023/07/25 03:14:51;;;;;;;2.10;1.40;;;;;;;15.80;100.00;96737.63;18435783;32;20132;-58
2023/07/25 03:24:53;;;;;;;2.55;1.20;;;;;;;15.76;100.00;96739.37;18421631;32;20106;-57
2023/07/25 03:34:56;;;;;;;4.40;1.62;;;;;;;15.73;100.00;96748.19;18434908;32;20045;-58
2023/07/25 03:44:58;;;;;;;4.18;1.42;;;;;;;15.65;100.00;96781.72;18433842;32;20089;-58
2023/07/25 03:55:00;;;;;;;2.58;1.25;;;;;;;15.62;100.00;96794.06;18433288;32;20042;-57
2023/07/25 04:05:03;;;;;;;2.70;1.20;;;;;;;15.68;100.00;96798.22;18418897;32;20431;-58
2023/07/25 04:15:07;;;;;;;2.53;1.17;;;;;;;15.70;100.00;96785.06;18432454;32;20071;-58
2023/07/25 04:25:09;;;;;;;1.50;0.97;;;;;;;15.82;100.00;96803.50;18425520;32;20429;-58
2023/07/25 04:35:11;;;;;;;1.65;1.20;;;;;;;15.85;100.00;96804.78;18431628;32;20368;-58
2023/07/25 04:45:14;;;;;;;2.00;1.25;;;;;;;15.81;100.00;96818.25;18416737;32;20060;-58
2023/07/25 04:55:16;;;;;;;6.18;1.12;;;;;;;15.87;100.00;96824.34;18430994;32;20049;-58
2023/07/25 05:05:19;;;;;;;2.22;1.30;;;;;;;16.13;100.00;96817.97;18416788;32;20054;-58
2023/07/25 05:15:23;;;;;;;3.65;1.12;;;;;;;16.33;100.00;96839.06;18430160;32;20421;-58
2023/07/25 05:25:25;;;;;;;2.67;1.33;;;;;;;16.47;100.00;96844.28;18436429;32;20049;-58
2023/07/25 05:35:28;;;;;;;1.90;1.30;;;;;;;16.66;100.00;96854.00;18428561;32;20049;-58
2023/07/25 05:45:30;;;;;;;1.90;1.17;;;;;;;16.84;100.00;96866.44;18426959;32;20045;-58
2023/07/25 05:55:32;;;;;;;2.80;1.30;;;;;;;17.03;100.00;96881.59;18440779;32;20049;-58
2023/07/25 06:05:35;;;;;;;2.22;1.20;;;;;;;17.32;100.00;96863.53;18440692;32;20087;-58
2023/07/25 06:15:37;;;;;;;3.28;1.17;;;;;;;17.64;100.00;96858.44;18433000;32;20065;-58
2023/07/25 06:25:40;;;;;;;3.30;1.50;;;;;;;17.69;100.00;96866.44;18438626;32;20369;-58
2023/07/25 06:35:43;;;;;;;2.37;1.37;;;;;;;17.46;100.00;96866.81;18437786;32;20370;-58
2023/07/25 06:45:46;;;;;;;2.67;1.30;;;;;;;17.61;100.00;96857.19;18423291;32;20063;-58
2023/07/25 06:55:48;;;;;;;2.78;1.30;;;;;;;17.88;100.00;96850.34;18436990;32;20098;-58
2023/07/25 07:05:53;;;;;;;3.23;1.60;;;;;;;18.11;100.00;96844.47;18430965;32;20057;-58
2023/07/25 07:15:56;;;;;;;4.47;1.65;;;;;;;18.73;100.00;96845.31;18421230;32;20116;-58
2023/07/25 07:25:59;;;;;;;3.80;1.10;;;;;;;19.20;100.00;96841.25;18434991;32;20429;-58
2023/07/25 07:36:02;;;;;;;2.77;1.03;;;;;;;19.11;100.00;96838.63;18434439;32;20057;-58
2023/07/25 07:46:05;;;;;;;5.93;1.30;;;;;;;18.57;100.00;96823.28;18433355;32;20045;-57
2023/07/25 07:56:08;;;;;;;5.22;1.10;;;;;;;18.58;100.00;96827.63;18433409;32;20509;-58
2023/07/25 08:06:11;;;;;;;2.63;1.30;;;;;;;19.07;100.00;96815.81;18432492;32;20076;-58
2023/07/25 08:16:14;;;;;;;3.70;1.20;;;;;;;19.61;100.00;96819.25;18418311;32;20073;-58
2023/07/25 08:26:24;;;;;;;3.08;1.45;;;;;;;20.38;100.00;96826.38;18432042;32;20389;-58
2023/07/25 08:36:28;;;;;;;4.53;1.40;;;;;;;20.91;100.00;96822.50;18431386;32;20128;-58
2023/07/25 08:46:34;;;;;;;;;;;;;;;21.28;100.00;96833.09;18417031;32;20046;-57
2023/07/25 08:56:40;;;;;;;3.72;1.48;;;;;;;21.27;100.00;96837.81;18430888;32;20000;-58
2023/07/25 09:06:44;;;;;;;2.15;0.80;;;;;;;20.99;100.00;96847.03;18414681;32;20109;-57
2023/07/25 09:28:46;;;;;;;1.95;1.20;;;;;;;18.74;100.00;96906.34;18442468;32;20057;-58
2023/07/25 09:38:54;;;;;;;1.45;0.70;;;;;;;18.10;100.00;96901.13;18442239;32;20389;-58
2023/07/25 09:48:58;;;;;;;2.37;1.23;;;;;;;18.75;100.00;96896.97;18441264;32;20054;-58
2023/07/25 09:59:01;;;;;;;1.10;0.70;;;;;;;19.28;100.00;96902.53;18440285;32;20072;-58
2023/07/25 10:09:10;;;;;;;1.62;0.77;;;;;;;19.79;100.00;96902.84;18439558;32;20414;-58
2023/07/25 10:19:13;;;;;;;1.65;0.68;;;;;;;20.07;100.00;96895.75;18412670;32;20054;-58
2023/07/25 10:29:37;;;;;;;1.00;0.80;;;;;;;20.15;100.00;96890.09;18438733;32;20050;-58
2023/07/25 10:39:40;;;;;;;2.40;0.80;;;;;;;20.92;100.00;96888.06;18438006;32;20040;-58
2023/07/25 10:49:55;;;;;;;1.40;0.73;;;;;;;21.85;100.00;96855.47;18417011;32;20076;-58
2023/07/25 11:00:05;;;;;;;1.10;0.65;;;;;;;22.53;100.00;96855.91;18436871;32;20124;-58
2023/07/25 11:10:08;;;;;;;0.82;0.60;;;;;;;22.82;100.00;96835.09;18436702;32;20049;-58
2023/07/25 11:20:29;;;;;;;1.08;0.68;;;;;;;23.01;100.00;96842.44;18434707;32;20433;-58
2023/07/25 11:30:33;;;;;;;1.15;0.50;;;;;;;23.69;100.00;96839.78;18435196;32;20361;-58
2023/07/25 11:40:40;;;;;;;1.00;0.60;;;;;;;22.88;100.00;96834.78;18407516;32;20045;-58
2023/07/25 11:50:48;;;;;;;1.75;0.52;;;;;;;22.77;100.00;96827.12;18433658;32;20078;-58
2023/07/25 12:00:54;;;;;;;0.57;0.45;;;;;;;21.23;100.00;96872.69;18433376;32;20124;-59
2023/07/25 12:11:11;;;;;;;1.17;0.80;;;;;;;20.59;100.00;96891.19;18432643;32;20049;-59
2023/07/25 12:21:23;;;;;;;0.32;0.30;;;;;;;20.76;100.00;96876.31;18418712;32;20113;-58
2023/07/25 12:31:28;;;;;;;0.70;0.40;;;;;;;21.00;100.00;96886.31;18431561;32;20057;-59
2023/07/25 12:41:31;;;;;;;2.80;0.43;;;;;;;21.32;100.00;96875.22;18424520;32;20060;-58
2023/07/25 12:51:34;;;;;;;1.17;0.52;;;;;;;22.07;100.00;96861.37;18431120;32;20471;-59
2023/07/25 13:01:37;;;;;;;0.60;0.30;;;;;;;22.99;100.00;96857.78;18430619;32;20072;-59
2023/07/25 13:11:40;;;;;;;;;;;;;;;22.85;96.84;96872.12;18430714;32;20517;-59
2023/07/25 13:21:43;;;;;;;1.52;0.60;;;;;;;21.50;100.00;96895.62;18416626;32;19952;-59
2023/07/25 13:31:46;;;;;;;;;;;;;;;22.62;100.00;96885.94;18425577;32;20128;-59
2023/07/25 13:41:49;;;;;;;3.15;0.52;;;;;;;23.50;88.61;96914.44;18429279;32;19963;-59
2023/07/25 13:51:52;;;;;;;1.40;0.80;;;;;;;23.61;90.70;96918.16;18312786;32;20053;-59
2023/07/25 14:01:58;;;;;;;2.87;0.90;;;;;;;24.14;74.76;96908.91;18310822;32;20066;-59
2023/07/25 14:12:01;;;;;;;2.03;0.73;;;;;;;25.22;67.60;96906.28;18310993;32;20096;-59
2023/07/25 14:22:04;;;;;;;2.03;1.12;;;;;;;26.31;53.14;96924.19;18310291;32;20103;-59
2023/07/25 14:32:08;;;;;;;1.62;0.80;;;;;;;26.30;54.19;96937.28;18310838;32;20097;-59
2023/07/25 14:42:12;;;;;;;2.70;1.00;;;;;;;26.43;63.13;96956.28;18313481;32;20473;-58
2023/07/25 14:52:15;;;;;;;2.72;1.02;;;;;;;25.89;57.55;96951.34;18423471;32;20057;-59
2023/07/25 15:02:19;;;;;;;2.55;1.10;;;;;;;25.14;63.08;96946.16;18436866;32;20103;-59
2023/07/25 15:12:23;;;;;;;1.83;1.00;;;;;;;24.10;75.28;96951.47;18409332;32;20069;-58
2023/07/25 15:22:27;;;;;;;1.77;0.95;;;;;;;23.17;84.91;96969.16;18420895;32;20071;-58
2023/07/25 15:32:32;;;;;;;2.17;0.88;;;;;;;23.19;90.58;96974.31;18420804;32;20073;-58
2023/07/25 15:42:34;;;;;;;2.45;0.90;;;;;;;21.91;90.77;97008.16;18433949;32;20102;-58
2023/07/25 15:52:38;;;;;;;3.20;1.10;;;;;;;20.87;100.00;97023.00;18419799;32;20468;-58
2023/07/25 16:02:41;;;;;;;0.82;0.55;;;;;;;19.75;100.00;97046.53;18433091;32;20164;-58
2023/07/25 16:12:44;;;;;;;1.70;0.30;;;;;;;18.72;100.00;97098.38;18418323;32;20107;-58
2023/07/25 16:22:47;;;;;;;1.27;0.57;;;;;;;17.83;100.00;97102.13;18432137;32;20129;-59
2023/07/25 16:32:51;;;;;;;3.00;0.40;;;;;;;17.30;100.00;97125.38;18417815;32;20370;-58
2023/07/25 16:42:54;;;;;;;1.17;0.30;;;;;;;16.83;100.00;97131.56;18431114;32;20117;-58
2023/07/25 16:52:58;;;;;;;1.45;0.28;;;;;;;16.43;100.00;97141.56;18431451;32;20069;-59
2023/07/25 17:03:03;;;;;;;4.37;0.52;;;;;;;16.24;100.00;97146.56;18430588;32;20109;-59
2023/07/25 17:13:07;;;;;;;1.62;0.45;;;;;;;16.04;100.00;97150.69;18416368;32;20104;-58
2023/07/25 17:23:10;;;;;;;3.03;0.50;;;;;;;15.89;100.00;97136.38;18440583;32;20062;-59
2023/07/25 17:33:13;;;;;;;0.27;0.10;;;;;;;15.76;100.00;97137.28;18415355;32;20083;-58
2023/07/25 17:43:17;;;;;;;0.20;0.17;;;;;;;15.83;100.00;97134.94;18441284;32;20057;-58
2023/07/25 17:53:20;;;;;;;0.45;0.10;;;;;;;15.98;100.00;97132.84;18441120;32;20065;-59
2023/07/25 18:03:23;;;;;;;1.00;0.50;;;;;;;16.04;100.00;97153.41;18438282;32;20108;-58
2023/07/25 18:13:27;;;;;;;0.43;0.27;;;;;;;16.28;100.00;97166.63;18436547;32;20075;-58
2023/07/25 18:23:30;;;;;;;0.90;0.30;;;;;;;16.10;100.00;97173.94;18439189;32;20343;-58
2023/07/25 18:33:33;;;;;;;0.77;0.40;;;;;;;15.70;100.00;97177.50;18438226;32;20442;-58
2023/07/25 18:43:36;;;;;;;2.72;0.55;;;;;;;15.39;100.00;97197.41;18437596;32;20048;-58
2023/07/25 18:53:40;;;;;;;;;;;;;;;15.20;100.00;97213.97;18437932;32;20072;-58
2023/07/25 19:03:43;;;;;;;0.37;0.20;;;;;;;15.12;100.00;97227.56;18422841;32;20336;-58
2023/07/25 19:13:46;;;;;;;1.23;0.40;;;;;;;15.03;100.00;97244.63;18436249;32;20067;-58
2023/07/25 19:23:50;;;;;;;3.37;0.37;;;;;;;14.95;100.00;97263.59;18435703;32;20057;-58
2023/07/25 19:33:54;;;;;;;0.47;0.30;;;;;;;14.88;100.00;97278.47;18421334;32;20079;-58
2023/07/25 19:43:57;;;;;;;0.90;0.50;;;;;;;14.80;100.00;97291.97;18406747;32;20115;-59
2023/07/25 19:54:00;;;;;;;0.73;0.43;;;;;;;14.77;100.00;97307.00;18427402;32;20079;-58
2023/07/25 20:04:03;;;;;;;1.40;0.70;;;;;;;14.79;100.00;97331.22;18433310;32;20449;-58
2023/07/25 20:14:08;;;;;;;0.62;0.50;;;;;;;14.71;100.00;97333.53;18432675;32;20049;-58
2023/07/25 20:24:12;;;;;;;0.75;0.52;;;;;;;14.71;100.00;97349.06;18418756;32;20120;-58
2023/07/25 20:34:15;;;;;;;0.83;0.50;;;;;;;14.65;100.00;97372.88;18432084;32;20445;-58
2023/07/25 20:44:19;;;;;;;2.40;0.50;;;;;;;14.67;100.00;97391.59;18431088;32;20477;-58
2023/07/25 20:54:21;;;;;;;2.92;0.60;;;;;;;14.62;100.00;97402.56;18441108;32;20080;-58
2023/07/25 21:04:24;;;;;;;0.75;0.55;;;;;;;14.60;100.00;97410.22;18438663;32;20409;-58
2023/07/25 21:14:30;;;;;;;0.45;0.30;;;;;;;14.57;100.00;97419.78;18452228;32;20113;-58
2023/07/25 21:24:34;;;;;;;0.50;0.40;;;;;;;14.54;100.00;97434.00;18451629;32;20061;-58
2023/07/25 21:34:37;;;;;;;1.57;0.47;;;;;;;14.43;100.00;97438.84;18451264;32;20069;-58
2023/07/25 21:44:41;;;;;;;2.30;0.37;;;;;;;14.39;100.00;97451.44;18444035;32;20425;-58
2023/07/25 21:54:44;;;;;;;4.18;0.68;;;;;;;14.37;100.00;97464.50;18450732;32;20092;-58
2023/07/25 22:04:48;;;;;;;2.73;0.80;;;;;;;14.29;100.00;97473.34;18446411;32;20079;-58
2023/07/25 22:14:51;;;;;;;2.15;1.17;;;;;;;14.26;100.00;97484.84;18425735;32;20323;-58
2023/07/25 22:24:53;;;;;;;4.57;1.40;;;;;;;14.12;100.00;97488.31;18439244;32;20463;-58
2023/07/25 22:34:56;;;;;;;1.85;1.52;;;;;;;13.98;100.00;97490.19;18418363;32;20072;-58
2023/07/25 22:45:00;;;;;;;1.85;1.33;;;;;;;13.84;100.00;97509.97;18437783;32;20065;-58
2023/07/25 22:55:04;;;;;;;3.30;1.75;;;;;;;13.62;100.00;97515.19;18437735;32;20113;-58
2023/07/25 23:05:06;;;;;;;2.40;1.63;;;;;;;13.41;100.00;97518.19;18436880;32;20065;-58
2023/07/25 23:15:11;;;;;;;3.75;2.28;;;;;;;13.30;100.00;97533.75;18436262;32;20057;-58
2023/07/25 23:25:14;;;;;;;2.37;2.00;;;;;;;13.15;100.00;97532.03;18435551;32;20077;-58
2023/07/25 23:35:16;;;;;;;2.87;1.77;;;;;;;13.01;100.00;97542.00;18421080;32;20054;-58
2023/07/25 23:45:19;;;;;;;2.65;1.50;;;;;;;12.91;100.00;97551.06;18434015;32;20087;-58
2023/07/25 23:55:21;;;;;;;2.95;1.67;;;;;;;12.79;100.00;97558.78;18420067;32;20429;-58
